Time;durP1;ratioP1;P1;durP2;ratioP2;P2;SDS_P1;SDS_P2;PMS_P1;PMS_P2;Temp;Humidity;BMP_temperature;BMP_pressure;BME280_temperature;BME280_humidity;BME280_pressure;Samples;Min_cycle;Max_cycle;Signal;HPM_P1;HPM_P2
2021/08/06 00:00:41;;;;;;;2.85;2.60;;;21.70;69.20;;;;;;5095763;28;20063;-72
2021/08/06 00:03:07;;;;;;;2.70;2.50;;;21.60;69.10;;;;;;5096738;28;20040;-72
2021/08/06 00:05:33;;;;;;;2.60;2.40;;;21.60;69.10;;;;;;5095299;28;20051;-72
2021/08/06 00:07:59;;;;;;;2.83;2.63;;;21.70;69.20;;;;;;5095899;28;20370;-72
2021/08/06 00:10:26;;;;;;;3.50;2.92;;;21.60;69.10;;;;;;5095985;28;20047;-72
2021/08/06 00:12:52;;;;;;;3.17;2.88;;;21.60;69.10;;;;;;5096376;28;20071;-72
2021/08/06 00:15:17;;;;;;;2.70;2.50;;;21.60;69.10;;;;;;5095623;28;20140;-73
2021/08/06 00:17:43;;;;;;;2.60;2.40;;;21.60;69.10;;;;;;5095640;28;20032;-72
2021/08/06 00:20:10;;;;;;;2.67;2.47;;;21.60;69.10;;;;;;5095977;28;20040;-72
2021/08/06 00:22:36;;;;;;;2.80;2.60;;;21.60;69.10;;;;;;5096293;28;20048;-72
2021/08/06 00:25:02;;;;;;;3.25;2.90;;;21.60;69.10;;;;;;5095455;28;20040;-72
2021/08/06 00:27:31;;;;;;;2.58;2.38;;;21.60;69.10;;;;;;5095624;28;20055;-72
2021/08/06 00:29:57;;;;;;;2.85;2.65;;;21.60;69.10;;;;;;5095618;28;20036;-73
2021/08/06 00:32:23;;;;;;;2.95;2.72;;;21.60;69.10;;;;;;5095923;28;20074;-72
2021/08/06 00:34:49;;;;;;;3.13;2.92;;;21.60;69.10;;;;;;5095583;28;20071;-72
2021/08/06 00:37:14;;;;;;;2.85;2.65;;;21.60;69.10;;;;;;5095542;28;20040;-72
2021/08/06 00:39:40;;;;;;;2.85;2.53;;;21.60;69.10;;;;;;5095239;28;20461;-72
2021/08/06 00:42:06;;;;;;;2.90;2.70;;;21.60;69.10;;;;;;5095294;28;20320;-73
2021/08/06 00:44:32;;;;;;;2.80;2.60;;;21.60;69.10;;;;;;5095091;28;20443;-72
2021/08/06 00:46:58;;;;;;;2.80;2.60;;;21.60;69.10;;;;;;5095378;28;20040;-72
2021/08/06 00:49:24;;;;;;;3.55;2.70;;;21.60;69.10;;;;;;5095770;28;20051;-72
2021/08/06 00:51:50;;;;;;;2.83;2.58;;;21.60;69.10;;;;;;5095349;28;20462;-73
2021/08/06 00:54:19;;;;;;;2.85;2.60;;;21.50;69.10;;;;;;5095313;28;20039;-72
2021/08/06 00:56:47;;;;;;;2.97;2.78;;;21.60;69.20;;;;;;5094936;28;20469;-72
2021/08/06 00:59:13;;;;;;;2.88;2.58;;;21.60;69.10;;;;;;5094992;28;20044;-72
2021/08/06 01:01:39;;;;;;;3.13;2.83;;;21.60;69.10;;;;;;5095448;28;20070;-72
2021/08/06 01:04:16;;;;;;;2.78;2.50;;;21.50;69.10;;;;;;5095485;28;20046;-72
2021/08/06 01:06:50;;;;;;;3.20;2.90;;;21.60;69.10;;;;;;5095007;28;20348;-72
2021/08/06 01:09:45;;;;;;;2.80;2.60;;;21.50;69.00;;;;;;5094833;28;20044;-72
2021/08/06 01:12:19;;;;;;;2.97;2.78;;;21.50;69.00;;;;;;5094959;28;20051;-72
2021/08/06 01:14:47;;;;;;;3.38;2.88;;;21.50;69.10;;;;;;5094924;28;20367;-72
2021/08/06 01:17:15;;;;;;;2.80;2.60;;;21.50;69.10;;;;;;5098870;28;20407;-72
2021/08/06 01:19:57;;;;;;;3.15;2.85;;;21.50;69.10;;;;;;5099570;28;20082;-72
2021/08/06 01:22:27;;;;;;;2.95;2.75;;;21.50;69.00;;;;;;5099239;28;20136;-72
2021/08/06 01:25:04;;;;;;;2.53;2.33;;;21.50;69.00;;;;;;5098870;28;20074;-72
2021/08/06 01:27:33;;;;;;;3.15;2.72;;;21.50;69.00;;;;;;5099081;28;20032;-72
2021/08/06 01:29:58;;;;;;;3.10;2.80;;;21.50;69.10;;;;;;5098741;28;20076;-72
2021/08/06 01:32:29;;;;;;;2.90;2.63;;;21.50;69.10;;;;;;5098485;28;20068;-73
2021/08/06 01:34:55;;;;;;;3.00;2.78;;;21.50;69.00;;;;;;5098890;28;20044;-72
2021/08/06 01:37:21;;;;;;;3.15;2.85;;;21.50;69.10;;;;;;5099180;28;20051;-72
2021/08/06 01:39:47;;;;;;;3.17;2.75;;;21.50;69.00;;;;;;5099321;28;20040;-73
2021/08/06 01:42:21;;;;;;;2.92;2.72;;;21.50;69.00;;;;;;5098528;28;20155;-72
2021/08/06 01:44:51;;;;;;;3.50;3.20;;;21.50;69.00;;;;;;5098680;28;20056;-72
2021/08/06 01:47:26;;;;;;;3.00;2.80;;;21.40;68.90;;;;;;5098524;28;20048;-72
2021/08/06 01:49:57;;;;;;;2.75;2.55;;;21.40;69.00;;;;;;5098399;28;20389;-72
2021/08/06 01:52:31;;;;;;;2.75;2.55;;;21.50;69.10;;;;;;5098483;28;20108;-72
2021/08/06 01:55:02;;;;;;;2.97;2.78;;;21.50;69.10;;;;;;5098296;28;20040;-72
2021/08/06 01:57:30;;;;;;;3.08;2.88;;;21.40;69.00;;;;;;5098158;28;20047;-72
2021/08/06 01:59:58;;;;;;;3.25;2.95;;;21.40;69.00;;;;;;5098835;28;20118;-72
2021/08/06 02:02:24;;;;;;;3.20;2.90;;;21.40;69.00;;;;;;5098184;28;20054;-72
2021/08/06 02:04:50;;;;;;;3.00;2.70;;;21.40;69.00;;;;;;5098599;28;20067;-72
2021/08/06 02:07:17;;;;;;;3.53;2.75;;;21.40;69.00;;;;;;5098277;28;20082;-72
2021/08/06 02:09:44;;;;;;;3.50;3.20;;;21.40;69.00;;;;;;5098039;28;20363;-72
2021/08/06 02:12:11;;;;;;;3.22;2.88;;;21.40;69.00;;;;;;5098128;28;20039;-72
2021/08/06 02:14:37;;;;;;;2.83;2.63;;;21.40;69.00;;;;;;5098319;28;20104;-72
2021/08/06 02:17:04;;;;;;;3.25;2.95;;;21.40;69.00;;;;;;5098735;28;20061;-72
2021/08/06 02:19:32;;;;;;;3.13;2.83;;;21.40;69.00;;;;;;5098168;28;20046;-72
2021/08/06 02:22:00;;;;;;;3.28;2.63;;;21.40;69.00;;;;;;5097768;28;20051;-72
2021/08/06 02:24:30;;;;;;;3.10;2.80;;;21.40;68.90;;;;;;5097843;28;20047;-72
2021/08/06 02:26:57;;;;;;;3.30;3.00;;;21.40;68.90;;;;;;5097037;28;20043;-72
2021/08/06 02:29:26;;;;;;;2.92;2.72;;;21.40;68.90;;;;;;5097839;28;20078;-72
2021/08/06 02:31:52;;;;;;;3.08;2.88;;;21.40;68.90;;;;;;5097703;28;20085;-72
2021/08/06 02:34:19;;;;;;;3.35;3.00;;;21.40;69.00;;;;;;5098184;28;20470;-72
2021/08/06 02:36:46;;;;;;;3.30;3.00;;;21.40;69.00;;;;;;5097703;28;20052;-72
2021/08/06 02:39:19;;;;;;;3.13;2.90;;;21.40;69.00;;;;;;5097584;28;20518;-73
2021/08/06 02:41:46;;;;;;;2.90;2.60;;;21.40;68.90;;;;;;5097760;28;20113;-72
2021/08/06 02:44:13;;;;;;;3.38;3.08;;;21.40;68.90;;;;;;5098248;28;20054;-72
2021/08/06 02:46:39;;;;;;;3.47;3.08;;;21.40;69.00;;;;;;5097687;28;20086;-72
2021/08/06 02:49:05;;;;;;;3.10;2.80;;;21.40;68.90;;;;;;5098056;28;20359;-72
2021/08/06 02:51:31;;;;;;;3.25;2.88;;;21.40;69.00;;;;;;5097382;28;20036;-72
2021/08/06 02:53:57;;;;;;;3.75;3.15;;;21.40;69.00;;;;;;5097316;28;20044;-72
2021/08/06 02:56:23;;;;;;;2.95;2.75;;;21.40;69.00;;;;;;5097746;28;20078;-72
2021/08/06 02:58:49;;;;;;;3.38;3.08;;;21.40;69.00;;;;;;5097099;28;20071;-72
2021/08/06 03:01:15;;;;;;;3.10;2.85;;;21.40;69.00;;;;;;5097043;28;20052;-72
2021/08/06 03:03:41;;;;;;;3.38;3.08;;;21.40;69.00;;;;;;5097039;28;20044;-72
2021/08/06 03:06:06;;;;;;;3.10;2.80;;;21.40;69.00;;;;;;5097113;28;20043;-72
2021/08/06 03:08:32;;;;;;;3.47;3.00;;;21.40;68.90;;;;;;5096961;28;20066;-72
2021/08/06 03:10:58;;;;;;;3.50;3.20;;;21.40;68.90;;;;;;5097153;28;20044;-73
2021/08/06 03:13:24;;;;;;;2.95;2.65;;;21.30;68.80;;;;;;5096811;28;20355;-72
2021/08/06 03:15:50;;;;;;;3.78;3.17;;;21.40;68.90;;;;;;5096768;28;20044;-72
2021/08/06 03:18:15;;;;;;;3.33;3.03;;;21.40;68.90;;;;;;5096700;28;20096;-72
2021/08/06 03:20:41;;;;;;;3.42;3.13;;;21.40;68.90;;;;;;5096776;28;20044;-72
2021/08/06 03:23:07;;;;;;;3.13;2.83;;;21.40;68.90;;;;;;5096442;28;20052;-72
2021/08/06 03:25:33;;;;;;;3.70;3.40;;;21.40;68.90;;;;;;5096717;28;20040;-72
2021/08/06 03:27:59;;;;;;;3.10;2.83;;;21.30;68.80;;;;;;5097321;28;20044;-72
2021/08/06 03:30:26;;;;;;;3.40;3.10;;;21.30;68.80;;;;;;5096764;28;20036;-72
2021/08/06 03:32:51;;;;;;;3.60;2.92;;;21.30;68.80;;;;;;5096616;28;20044;-72
2021/08/06 03:35:17;;;;;;;3.67;2.70;;;21.40;68.80;;;;;;5096382;28;20042;-72
2021/08/06 03:37:44;;;;;;;3.45;3.15;;;21.30;68.80;;;;;;5096105;28;20351;-72
2021/08/06 03:40:11;;;;;;;2.97;2.78;;;21.40;68.80;;;;;;5097024;28;20097;-72
2021/08/06 03:42:37;;;;;;;2.92;2.72;;;21.40;68.90;;;;;;5096579;28;20119;-72
2021/08/06 03:45:05;;;;;;;3.28;2.97;;;21.30;68.80;;;;;;5096506;28;20443;-72
2021/08/06 03:47:31;;;;;;;3.95;3.10;;;21.30;68.80;;;;;;5096321;28;20036;-72
2021/08/06 03:49:57;;;;;;;3.20;2.88;;;21.30;68.80;;;;;;5096274;28;20343;-72
2021/08/06 03:52:23;;;;;;;3.55;3.25;;;21.30;68.80;;;;;;5096179;28;20093;-72
2021/08/06 03:54:48;;;;;;;3.92;3.20;;;21.30;68.80;;;;;;5096623;28;20108;-72
2021/08/06 03:57:14;;;;;;;2.95;2.75;;;21.30;68.80;;;;;;5096667;28;20328;-72
2021/08/06 03:59:40;;;;;;;2.78;2.58;;;21.30;68.80;;;;;;5095909;28;20116;-72
2021/08/06 04:02:07;;;;;;;4.45;3.00;;;21.30;68.80;;;;;;5096622;28;20114;-72
2021/08/06 04:04:32;;;;;;;3.38;3.08;;;21.30;68.80;;;;;;5095974;28;20047;-72
2021/08/06 04:06:58;;;;;;;3.10;2.90;;;21.30;68.80;;;;;;5095876;28;20044;-72
2021/08/06 04:09:24;;;;;;;3.25;2.95;;;21.30;68.80;;;;;;5096624;28;20048;-72
2021/08/06 04:11:50;;;;;;;3.22;2.92;;;21.30;68.80;;;;;;5095999;28;20339;-72
2021/08/06 04:14:16;;;;;;;2.70;2.50;;;21.30;68.80;;;;;;5095845;28;20343;-72
2021/08/06 04:16:42;;;;;;;3.67;3.10;;;21.30;68.80;;;;;;5096372;28;20059;-72
2021/08/06 04:19:08;;;;;;;3.47;2.92;;;21.30;68.80;;;;;;5095737;28;20441;-72
2021/08/06 04:21:34;;;;;;;3.20;2.95;;;21.30;68.70;;;;;;5096185;28;20048;-72
2021/08/06 04:24:00;;;;;;;3.03;2.65;;;21.30;68.80;;;;;;5095598;28;20054;-72
2021/08/06 04:26:29;;;;;;;3.90;3.30;;;21.30;68.80;;;;;;5095578;28;20097;-72
2021/08/06 04:28:55;;;;;;;3.05;2.75;;;21.30;68.80;;;;;;5095469;28;20039;-72
2021/08/06 04:31:21;;;;;;;3.72;3.42;;;21.30;68.80;;;;;;5095734;28;20044;-72
2021/08/06 04:33:47;;;;;;;3.00;2.80;;;21.30;68.80;;;;;;5095463;28;20097;-72
2021/08/06 04:36:13;;;;;;;3.22;2.92;;;21.30;68.80;;;;;;5095142;28;20036;-72
2021/08/06 04:38:42;;;;;;;3.28;2.95;;;21.30;68.80;;;;;;5095310;28;20056;-72
2021/08/06 04:41:09;;;;;;;3.20;2.90;;;21.30;68.80;;;;;;5095274;28;20131;-72
2021/08/06 04:43:35;;;;;;;3.22;2.88;;;21.30;68.80;;;;;;5095459;28;20044;-72
2021/08/06 04:46:00;;;;;;;3.17;2.88;;;21.30;68.80;;;;;;5095269;28;20101;-72
2021/08/06 04:48:27;;;;;;;3.00;2.80;;;21.30;68.80;;;;;;5094891;28;20036;-73
2021/08/06 04:50:52;;;;;;;2.90;2.70;;;21.30;68.80;;;;;;5094884;28;20051;-72
2021/08/06 04:53:18;;;;;;;3.22;3.00;;;21.30;68.90;;;;;;5095238;28;20047;-72
2021/08/06 04:55:44;;;;;;;3.15;2.78;;;21.30;68.80;;;;;;5095284;28;20468;-72
2021/08/06 04:58:10;;;;;;;3.22;2.92;;;21.30;68.80;;;;;;5095201;28;20063;-72
2021/08/06 05:00:36;;;;;;;2.90;2.60;;;21.30;68.80;;;;;;5095078;28;20448;-72
2021/08/06 05:03:02;;;;;;;2.85;2.65;;;21.20;68.80;;;;;;5095045;28;20131;-72
2021/08/06 05:05:28;;;;;;;2.85;2.65;;;21.30;68.90;;;;;;5095529;28;20108;-72
2021/08/06 05:07:55;;;;;;;2.70;2.50;;;21.30;68.90;;;;;;5095105;28;20158;-72
2021/08/06 05:10:22;;;;;;;3.00;2.80;;;21.30;68.90;;;;;;5095074;28;20051;-72
2021/08/06 05:12:49;;;;;;;2.90;2.70;;;21.30;68.90;;;;;;5095046;28;20113;-72
2021/08/06 05:15:16;;;;;;;3.10;2.80;;;21.30;69.00;;;;;;5095600;28;20336;-72
2021/08/06 05:17:42;;;;;;;3.13;2.92;;;21.20;68.80;;;;;;5094967;28;20121;-73
2021/08/06 05:20:09;;;;;;;3.13;2.88;;;21.30;68.90;;;;;;5095328;28;20050;-72
2021/08/06 05:22:35;;;;;;;2.95;2.75;;;21.30;68.90;;;;;;5095034;28;20085;-72
2021/08/06 05:25:01;;;;;;;2.72;2.53;;;21.30;68.90;;;;;;5095097;28;20048;-72
2021/08/06 05:27:27;;;;;;;2.90;2.70;;;21.20;68.80;;;;;;5094969;28;20107;-72
2021/08/06 05:29:52;;;;;;;3.15;2.85;;;21.30;68.90;;;;;;5094880;28;20112;-72
2021/08/06 05:32:19;;;;;;;2.75;2.55;;;21.20;68.90;;;;;;5094724;28;20063;-73
2021/08/06 05:34:45;;;;;;;2.95;2.70;;;21.30;69.00;;;;;;5095441;28;20424;-72
2021/08/06 05:37:10;;;;;;;3.95;3.10;;;21.20;68.90;;;;;;5094524;28;20409;-72
2021/08/06 05:39:36;;;;;;;2.75;2.42;;;21.20;68.90;;;;;;5094745;28;20089;-72
2021/08/06 05:42:02;;;;;;;2.75;2.53;;;21.20;68.90;;;;;;5094701;28;20040;-72
2021/08/06 05:44:29;;;;;;;2.80;2.60;;;21.30;69.00;;;;;;5094717;28;20209;-72
2021/08/06 05:46:55;;;;;;;3.25;2.65;;;21.20;69.00;;;;;;5094739;28;20052;-72
2021/08/06 05:49:22;;;;;;;3.17;2.88;;;21.30;69.00;;;;;;5094670;28;20050;-72
2021/08/06 05:51:48;;;;;;;3.25;2.95;;;21.20;68.90;;;;;;5095188;28;20123;-72
2021/08/06 05:54:14;;;;;;;3.00;2.80;;;21.20;69.00;;;;;;5094676;28;20062;-72
2021/08/06 05:56:40;;;;;;;3.33;2.70;;;21.30;69.00;;;;;;5094521;28;20089;-72
2021/08/06 05:59:08;;;;;;;2.67;2.47;;;21.30;69.10;;;;;;5094430;28;20040;-72
2021/08/06 06:01:35;;;;;;;3.53;2.97;;;21.20;69.00;;;;;;5094288;28;20129;-72
2021/08/06 06:04:00;;;;;;;2.70;2.50;;;21.20;69.10;;;;;;5098205;28;20060;-72
2021/08/06 06:06:27;;;;;;;2.80;2.60;;;21.20;69.10;;;;;;5098821;28;20439;-72
2021/08/06 06:08:53;;;;;;;3.70;2.70;;;21.30;69.10;;;;;;5098278;28;20165;-72
2021/08/06 06:11:19;;;;;;;2.80;2.58;;;21.30;69.20;;;;;;5098440;28;20464;-72
2021/08/06 06:13:46;;;;;;;2.97;2.67;;;21.20;69.10;;;;;;5097997;28;20040;-72
2021/08/06 06:16:12;;;;;;;3.50;3.20;;;21.30;69.20;;;;;;5098094;28;20069;-72
2021/08/06 06:18:38;;;;;;;2.95;2.75;;;21.20;69.10;;;;;;5098206;28;20120;-72
2021/08/06 06:21:06;;;;;;;2.80;2.60;;;21.30;69.20;;;;;;5098152;28;20439;-72
2021/08/06 06:23:34;;;;;;;2.95;2.75;;;21.20;69.20;;;;;;5098323;28;20059;-72
2021/08/06 06:26:00;;;;;;;2.97;2.60;;;21.20;69.20;;;;;;5097845;28;20040;-73
2021/08/06 06:28:32;;;;;;;2.88;2.65;;;21.20;69.20;;;;;;5097719;28;20336;-72
2021/08/06 06:30:58;;;;;;;2.85;2.65;;;21.20;69.20;;;;;;5097791;28;20039;-72
2021/08/06 06:33:25;;;;;;;2.70;2.50;;;21.30;69.30;;;;;;5098220;28;20111;-73
2021/08/06 06:35:51;;;;;;;2.63;2.42;;;21.20;69.20;;;;;;5097572;28;20366;-72
2021/08/06 06:38:17;;;;;;;2.67;2.47;;;21.20;69.80;;;;;;5097526;28;20040;-72
2021/08/06 06:40:43;;;;;;;3.28;2.70;;;21.20;69.20;;;;;;5097622;28;20050;-72
2021/08/06 06:43:09;;;;;;;2.92;2.72;;;21.30;69.30;;;;;;5097312;28;20454;-72
2021/08/06 06:45:35;;;;;;;2.97;2.67;;;21.20;69.20;;;;;;5097487;28;20116;-72
2021/08/06 06:48:01;;;;;;;2.60;2.40;;;21.20;69.20;;;;;;5097665;28;20115;-72
2021/08/06 06:50:29;;;;;;;3.40;2.50;;;21.30;69.30;;;;;;5097297;28;20119;-72
2021/08/06 06:52:55;;;;;;;3.65;2.80;;;21.20;69.30;;;;;;5097214;28;20328;-72
2021/08/06 06:55:22;;;;;;;2.58;2.38;;;21.20;69.30;;;;;;5097345;28;20362;-72
2021/08/06 06:57:50;;;;;;;2.83;2.63;;;21.30;69.40;;;;;;5097288;28;20043;-72
2021/08/06 07:00:18;;;;;;;3.20;2.50;;;21.30;69.30;;;;;;5096876;28;20473;-72
2021/08/06 07:02:44;;;;;;;2.95;2.40;;;21.30;69.30;;;;;;5097174;28;20058;-72
2021/08/06 07:05:11;;;;;;;2.78;2.58;;;21.20;69.30;;;;;;5097347;28;20043;-72
2021/08/06 07:07:36;;;;;;;2.97;2.67;;;21.30;69.40;;;;;;5097226;28;20044;-72
2021/08/06 07:10:03;;;;;;;2.78;2.40;;;21.20;69.30;;;;;;5097140;28;20509;-72
2021/08/06 07:12:29;;;;;;;2.90;2.70;;;21.20;69.30;;;;;;5096906;28;20048;-73
2021/08/06 07:14:55;;;;;;;2.95;2.47;;;21.20;69.40;;;;;;5096399;28;20455;-72
2021/08/06 07:17:20;;;;;;;2.70;2.50;;;21.20;69.40;;;;;;5097037;28;20411;-72
2021/08/06 07:19:46;;;;;;;2.95;2.50;;;21.30;69.40;;;;;;5096949;28;20359;-72
2021/08/06 07:22:12;;;;;;;2.67;2.47;;;21.20;69.40;;;;;;5096941;28;20047;-72
2021/08/06 07:24:38;;;;;;;2.67;2.47;;;21.30;69.40;;;;;;5096726;28;20123;-72
2021/08/06 07:27:04;;;;;;;2.60;2.40;;;21.20;69.40;;;;;;5096613;28;20032;-72
2021/08/06 07:29:30;;;;;;;2.53;2.33;;;21.30;69.50;;;;;;5096386;28;20048;-72
2021/08/06 07:31:56;;;;;;;2.50;2.30;;;21.20;69.40;;;;;;5096750;28;20052;-72
2021/08/06 07:34:22;;;;;;;2.88;2.63;;;21.30;69.50;;;;;;5096508;28;20118;-72
2021/08/06 07:36:48;;;;;;;2.40;2.20;;;21.30;69.40;;;;;;5096628;28;20134;-72
2021/08/06 07:39:14;;;;;;;2.65;2.35;;;21.30;69.50;;;;;;5096190;28;20044;-72
2021/08/06 07:41:39;;;;;;;2.50;2.30;;;21.30;69.50;;;;;;5096398;28;20503;-72
2021/08/06 07:44:05;;;;;;;2.50;2.30;;;21.30;69.70;;;;;;5096383;28;20032;-72
2021/08/06 07:46:31;;;;;;;2.92;2.35;;;21.30;69.50;;;;;;5096528;28;20032;-72
2021/08/06 07:48:57;;;;;;;2.60;2.28;;;21.20;69.40;;;;;;5096671;28;20035;-72
2021/08/06 07:51:23;;;;;;;2.55;2.35;;;21.30;69.60;;;;;;5096173;28;20131;-72
2021/08/06 07:53:48;;;;;;;2.67;2.47;;;21.30;69.60;;;;;;5096255;28;20048;-72
2021/08/06 07:56:15;;;;;;;2.75;2.15;;;21.30;69.60;;;;;;5096129;28;20040;-73
2021/08/06 07:58:41;;;;;;;2.40;2.17;;;21.30;69.60;;;;;;5096149;28;20108;-72
2021/08/06 08:01:07;;;;;;;3.50;2.13;;;21.30;69.60;;;;;;5096591;28;20056;-72
2021/08/06 08:03:33;;;;;;;2.58;2.22;;;21.30;69.60;;;;;;5096360;28;20051;-72
2021/08/06 08:06:00;;;;;;;2.70;2.22;;;21.30;69.60;;;;;;5095998;28;20077;-72
2021/08/06 08:08:26;;;;;;;2.58;2.17;;;21.30;69.60;;;;;;5095987;28;20035;-72
2021/08/06 08:10:52;;;;;;;2.13;1.60;;;21.30;69.60;;;;;;5095939;28;20047;-73
2021/08/06 08:13:18;;;;;;;2.22;2.03;;;21.40;69.70;;;;;;5096136;28;20044;-72
2021/08/06 08:15:44;;;;;;;2.55;2.20;;;21.30;69.60;;;;;;5095858;28;20439;-72
2021/08/06 08:18:10;;;;;;;2.50;2.10;;;21.30;69.60;;;;;;5095716;28;20040;-72
2021/08/06 08:20:37;;;;;;;2.40;2.08;;;21.40;69.70;;;;;;5095644;28;20055;-72
2021/08/06 08:23:02;;;;;;;3.15;1.80;;;21.40;69.70;;;;;;5095508;28;20451;-72
2021/08/06 08:25:28;;;;;;;2.92;2.40;;;21.40;69.70;;;;;;5094988;28;20044;-72
2021/08/06 08:27:54;;;;;;;2.55;2.20;;;21.40;69.70;;;;;;5095308;28;20496;-72
2021/08/06 08:30:20;;;;;;;2.50;2.20;;;21.40;69.70;;;;;;5096017;28;20118;-72
2021/08/06 08:32:46;;;;;;;2.33;1.83;;;21.40;69.70;;;;;;5095551;28;20465;-73
2021/08/06 08:35:12;;;;;;;1.95;1.73;;;21.40;69.70;;;;;;5096035;28;20122;-72
2021/08/06 08:37:38;;;;;;;2.47;1.95;;;21.40;69.70;;;;;;5095641;28;20419;-72
2021/08/06 08:40:06;;;;;;;2.30;1.95;;;21.40;69.60;;;;;;5094980;28;20047;-72
2021/08/06 08:42:31;;;;;;;2.25;2.05;;;21.40;69.60;;;;;;5095904;28;20047;-72
2021/08/06 08:45:01;;;;;;;2.10;1.90;;;21.40;69.60;;;;;;5095783;28;20435;-72
2021/08/06 08:47:28;;;;;;;1.92;1.73;;;21.40;69.60;;;;;;5095386;28;20123;-72
2021/08/06 08:49:54;;;;;;;2.03;1.80;;;21.40;69.60;;;;;;5095357;28;20066;-72
2021/08/06 08:52:21;;;;;;;2.00;1.80;;;21.40;69.60;;;;;;5095212;28;20035;-72
2021/08/06 08:54:47;;;;;;;2.28;1.70;;;21.40;69.60;;;;;;5094923;28;20043;-72
2021/08/06 08:57:21;;;;;;;2.15;1.95;;;21.40;69.60;;;;;;5095788;28;20036;-72
2021/08/06 08:59:47;;;;;;;;;;;21.40;69.60;;;;;;5095526;28;20035;-73
2021/08/06 09:02:14;;;;;;;2.10;1.88;;;21.40;69.60;;;;;;5095019;28;19965;-72
2021/08/06 09:04:43;;;;;;;2.40;1.85;;;21.40;69.80;;;;;;5095724;28;20180;-73
2021/08/06 09:07:10;;;;;;;2.15;1.80;;;21.40;69.80;;;;;;5095057;28;20043;-73
2021/08/06 09:09:36;;;;;;;3.05;2.20;;;21.40;69.80;;;;;;5095615;28;20123;-72
2021/08/06 09:12:06;;;;;;;1.67;1.58;;;21.40;69.80;;;;;;5094818;28;20403;-72
2021/08/06 09:14:33;;;;;;;2.60;1.65;;;21.40;69.80;;;;;;5095493;28;20036;-72
2021/08/06 09:17:13;;;;;;;2.22;1.80;;;21.50;69.70;;;;;;5095268;28;20052;-72
2021/08/06 09:19:56;;;;;;;2.22;1.80;;;21.50;69.70;;;;;;5094996;28;20047;-72
2021/08/06 09:22:25;;;;;;;2.35;2.15;;;21.50;69.70;;;;;;5095383;28;20058;-72
2021/08/06 09:25:01;;;;;;;1.90;1.70;;;21.50;69.70;;;;;;5094788;28;20040;-72
2021/08/06 09:27:32;;;;;;;1.70;1.50;;;21.50;69.70;;;;;;5094918;28;20040;-72
2021/08/06 09:30:00;;;;;;;2.17;1.90;;;21.50;69.70;;;;;;5094726;28;20512;-72
2021/08/06 09:32:27;;;;;;;2.55;2.03;;;21.50;69.70;;;;;;5094780;28;20036;-72
2021/08/06 09:34:53;;;;;;;2.72;2.15;;;21.50;69.70;;;;;;5094863;28;20040;-73
2021/08/06 09:37:21;;;;;;;1.90;1.80;;;21.50;69.70;;;;;;5096968;28;20522;-72
2021/08/06 09:39:51;;;;;;;1.83;1.70;;;21.60;69.80;;;;;;5098522;28;20119;-72
2021/08/06 09:42:29;;;;;;;2.20;2.00;;;21.60;69.70;;;;;;5098576;28;20036;-72
2021/08/06 09:45:08;;;;;;;2.30;2.05;;;21.50;69.70;;;;;;5098660;28;20469;-72
2021/08/06 09:47:36;;;;;;;2.25;2.05;;;21.60;69.70;;;;;;5099254;28;20044;-72
2021/08/06 09:50:09;;;;;;;2.10;1.90;;;21.60;69.80;;;;;;5098760;28;20105;-73
2021/08/06 09:52:38;;;;;;;2.55;2.25;;;21.60;69.80;;;;;;5098504;28;20048;-72
2021/08/06 09:55:05;;;;;;;2.10;1.90;;;21.60;69.70;;;;;;5098618;28;20070;-72
2021/08/06 09:57:32;;;;;;;2.45;2.25;;;21.60;69.70;;;;;;5098931;28;20044;-72
2021/08/06 10:00:00;;;;;;;2.28;2.08;;;21.60;69.70;;;;;;5098714;28;20044;-73
2021/08/06 10:02:27;;;;;;;2.65;2.20;;;21.60;69.70;;;;;;5098531;28;20439;-72
2021/08/06 10:05:07;;;;;;;2.53;2.00;;;21.60;69.70;;;;;;5098221;28;20040;-72
2021/08/06 10:07:40;;;;;;;2.47;2.28;;;21.60;69.60;;;;;;5098294;28;20040;-72
2021/08/06 10:10:08;;;;;;;;;;;21.60;69.60;;;;;;5099121;28;20036;-72
2021/08/06 10:12:34;;;;;;;3.97;2.15;;;21.60;69.60;;;;;;5097981;28;20313;-72
2021/08/06 10:15:00;;;;;;;2.00;1.80;;;21.60;69.70;;;;;;5098445;28;20044;-72
2021/08/06 10:17:26;;;;;;;2.50;2.30;;;21.60;69.70;;;;;;5098214;28;20067;-72
2021/08/06 10:19:52;;;;;;;2.75;2.33;;;21.60;69.60;;;;;;5080308;28;20036;-72
2021/08/06 10:22:18;;;;;;;2.70;2.50;;;21.60;69.60;;;;;;5097920;28;20389;-72
2021/08/06 10:24:52;;;;;;;2.65;2.20;;;21.70;69.70;;;;;;5097953;28;20047;-72
2021/08/06 10:27:23;;;;;;;2.17;1.98;;;21.60;69.60;;;;;;5098414;28;20040;-72
2021/08/06 10:29:58;;;;;;;2.78;2.30;;;21.70;69.70;;;;;;5097735;28;20044;-72
2021/08/06 10:32:24;;;;;;;3.10;1.98;;;21.70;69.70;;;;;;5097819;28;20040;-72
2021/08/06 10:35:02;;;;;;;2.60;2.40;;;21.70;69.70;;;;;;5097595;28;20054;-73
2021/08/06 10:37:47;;;;;;;2.40;2.20;;;21.70;69.70;;;;;;5097839;28;20119;-72
2021/08/06 10:40:32;;;;;;;2.63;2.42;;;21.70;69.70;;;;;;5097249;28;20036;-72
2021/08/06 10:43:11;;;;;;;2.78;2.38;;;21.70;69.70;;;;;;5097484;28;20111;-72
2021/08/06 10:45:55;;;;;;;2.53;2.33;;;21.70;69.70;;;;;;5098099;28;20050;-72
2021/08/06 10:48:26;;;;;;;;;;;21.70;69.70;;;;;;5097348;28;20040;-72
2021/08/06 10:51:16;;;;;;;2.50;2.30;;;21.70;69.60;;;;;;5097156;28;20356;-72
2021/08/06 10:53:46;;;;;;;2.22;2.03;;;21.70;69.70;;;;;;5097237;28;20454;-72
2021/08/06 10:56:18;;;;;;;2.97;2.38;;;21.70;69.70;;;;;;5097307;28;20085;-72
2021/08/06 10:58:53;;;;;;;2.45;2.25;;;21.70;69.70;;;;;;5097396;28;20466;-72
2021/08/06 11:01:31;;;;;;;2.20;2.00;;;21.70;69.70;;;;;;5097159;28;20047;-72
2021/08/06 11:04:05;;;;;;;2.72;2.40;;;21.70;69.70;;;;;;5097201;28;20087;-73
2021/08/06 11:06:47;;;;;;;2.53;2.33;;;21.70;69.70;;;;;;5097197;28;20036;-72
2021/08/06 11:12:02;;;;;;;2.33;2.03;;;21.80;69.70;;;;;;5097261;28;20413;-72
2021/08/06 11:14:28;;;;;;;2.88;2.35;;;21.70;69.60;;;;;;5096953;28;20050;-72
2021/08/06 11:17:00;;;;;;;2.28;2.08;;;21.80;69.70;;;;;;5096966;28;20502;-72
2021/08/06 11:19:29;;;;;;;2.85;2.20;;;21.70;69.60;;;;;;5097394;28;20075;-72
2021/08/06 11:21:55;;;;;;;2.92;2.10;;;21.80;69.70;;;;;;5097158;28;20044;-72
2021/08/06 11:24:21;;;;;;;3.00;2.30;;;21.80;69.60;;;;;;5096993;28;20040;-72
2021/08/06 11:26:48;;;;;;;3.05;2.55;;;21.80;69.70;;;;;;5096784;28;20040;-72
2021/08/06 11:29:14;;;;;;;2.53;2.33;;;21.80;69.60;;;;;;5096462;28;20039;-72
2021/08/06 11:31:40;;;;;;;2.45;2.25;;;21.80;69.50;;;;;;5097116;28;20040;-72
2021/08/06 11:34:07;;;;;;;3.55;2.50;;;21.80;69.50;;;;;;5096651;28;20036;-72
2021/08/06 11:36:34;;;;;;;2.72;2.45;;;21.80;69.50;;;;;;5097273;28;20044;-72
2021/08/06 11:39:12;;;;;;;3.13;2.40;;;21.80;69.50;;;;;;5096723;28;20537;-72
2021/08/06 11:41:52;;;;;;;2.55;2.25;;;21.80;69.40;;;;;;5096374;28;20036;-72
2021/08/06 11:44:18;;;;;;;2.35;2.15;;;21.80;69.40;;;;;;5096771;28;20051;-72
2021/08/06 11:46:48;;;;;;;4.30;2.10;;;21.80;69.40;;;;;;5096904;28;20119;-73
2021/08/06 11:49:15;;;;;;;4.00;2.47;;;21.80;69.40;;;;;;5096595;28;20040;-72
2021/08/06 11:51:57;;;;;;;3.20;2.42;;;21.80;69.40;;;;;;5096247;28;20047;-72
2021/08/06 11:54:24;;;;;;;2.30;2.10;;;21.80;69.30;;;;;;5096197;28;20043;-72
2021/08/06 11:56:58;;;;;;;2.60;2.25;;;21.80;69.30;;;;;;5096729;28;20036;-72
2021/08/06 11:59:24;;;;;;;4.15;2.60;;;21.80;69.30;;;;;;5095679;28;20450;-72
2021/08/06 12:02:17;;;;;;;2.63;2.25;;;21.80;69.30;;;;;;5095303;28;20048;-72
2021/08/06 12:04:43;;;;;;;2.45;2.25;;;21.80;69.20;;;;;;5095956;28;20482;-72
2021/08/06 12:07:08;;;;;;;2.95;2.53;;;21.80;69.30;;;;;;5096580;28;20135;-72
2021/08/06 12:09:34;;;;;;;2.35;2.13;;;21.80;69.20;;;;;;5095943;28;20044;-72
2021/08/06 12:12:00;;;;;;;3.83;2.40;;;21.90;69.30;;;;;;5096305;28;20039;-72
2021/08/06 12:14:28;;;;;;;3.15;2.28;;;21.80;69.20;;;;;;5095868;28;20118;-72
2021/08/06 12:16:54;;;;;;;2.30;2.10;;;21.80;69.20;;;;;;5096007;28;20111;-73
2021/08/06 12:19:21;;;;;;;2.78;2.15;;;21.90;69.20;;;;;;5095642;28;20445;-72
2021/08/06 12:21:47;;;;;;;2.13;1.83;;;21.90;69.30;;;;;;5095970;28;20459;-72
2021/08/06 12:24:19;;;;;;;2.22;2.00;;;21.90;69.20;;;;;;5096040;28;20047;-72
2021/08/06 12:26:50;;;;;;;3.22;1.92;;;21.80;69.80;;;;;;5095957;28;20108;-72
2021/08/06 12:29:19;;;;;;;2.97;2.30;;;21.90;69.30;;;;;;5095569;28;20455;-73
2021/08/06 12:31:51;;;;;;;2.13;1.80;;;21.90;69.20;;;;;;5095578;28;20035;-72
2021/08/06 12:34:26;;;;;;;2.10;1.83;;;21.90;69.20;;;;;;5096149;28;20036;-72
2021/08/06 12:37:00;;;;;;;2.78;1.85;;;21.80;69.10;;;;;;5096177;28;20143;-72
2021/08/06 12:39:29;;;;;;;2.45;1.90;;;21.90;69.10;;;;;;5095874;28;20119;-72
2021/08/06 12:41:55;;;;;;;2.05;1.85;;;21.80;69.10;;;;;;5095205;28;20054;-72
2021/08/06 12:44:30;;;;;;;2.33;1.65;;;21.90;69.10;;;;;;5095125;28;20047;-72
2021/08/06 12:47:17;;;;;;;2.92;2.20;;;21.90;69.10;;;;;;5095422;28;20059;-72
2021/08/06 12:50:05;;;;;;;2.50;1.52;;;21.90;69.10;;;;;;5095882;28;20047;-72
2021/08/06 12:52:36;;;;;;;3.35;2.22;;;21.90;69.00;;;;;;5095259;28;20047;-72
2021/08/06 12:55:09;;;;;;;2.03;1.77;;;21.90;69.10;;;;;;5094994;28;20047;-72